Stockerau, Austria
Current Conditions -  °F | °C
As of 1:50 PM on Sunday 25 Jan 2015 (Local Time) from LOXT Reporting Station
Light Snow Light Snow  
Wind Chill: 27°   Ceiling: 2000
Heat Index: 34°   Visibility: 4mi
Dew Point: 34°   Wind: 8mph
Humidity: 100%   Direction: 300°WNW
Pressure: 30.18"   Gusts: NA
Location:  48.39°N, 16.23°E
Report Text: LOXT 251150Z 30007KT 6000 -RASN FEW008ST SCT015SC BKN020SC 01/01 Q1022 RMK OVC
Loading
Personal Weather Stations






























Interactive Weather Map New forecast layout! Learn more

10-Day Weather Forecast

Advertisements
Track Severe Weather on mobile